sensor_id;sensor_type;location;lat;lon;timestamp;pressure;altitude;pressure_sealevel;temperature;humidity
64095;BME280;50353;51.420;5.682;2023-01-28T00:00:21;102612.50;;;3.55;77.60
64095;BME280;50353;51.420;5.682;2023-01-28T00:02:46;102611.66;;;3.53;76.97
64095;BME280;50353;51.420;5.682;2023-01-28T00:05:13;102610.78;;;3.47;77.96
64095;BME280;50353;51.420;5.682;2023-01-28T00:07:39;102611.66;;;3.33;78.86
64095;BME280;50353;51.420;5.682;2023-01-28T00:10:04;102613.34;;;3.71;78.86
64095;BME280;50353;51.420;5.682;2023-01-28T00:12:30;102613.41;;;3.34;79.48
64095;BME280;50353;51.420;5.682;2023-01-28T00:14:55;102616.88;;;3.57;79.61
64095;BME280;50353;51.420;5.682;2023-01-28T00:17:20;102608.97;;;3.69;78.92
64095;BME280;50353;51.420;5.682;2023-01-28T00:19:46;102609.91;;;3.42;79.07
64095;BME280;50353;51.420;5.682;2023-01-28T00:22:11;102606.38;;;3.61;78.40
64095;BME280;50353;51.420;5.682;2023-01-28T00:24:36;102605.56;;;3.28;79.51
64095;BME280;50353;51.420;5.682;2023-01-28T00:27:01;102609.06;;;3.30;79.79
64095;BME280;50353;51.420;5.682;2023-01-28T00:29:27;102604.66;;;3.57;79.52
64095;BME280;50353;51.420;5.682;2023-01-28T00:31:52;102601.22;;;3.32;80.30
64095;BME280;50353;51.420;5.682;2023-01-28T00:34:17;102609.03;;;3.53;79.77
64095;BME280;50353;51.420;5.682;2023-01-28T00:36:43;102609.91;;;3.52;79.43
64095;BME280;50353;51.420;5.682;2023-01-28T00:39:13;102602.94;;;3.54;78.54
64095;BME280;50353;51.420;5.682;2023-01-28T00:41:38;102592.50;;;3.47;78.81
64095;BME280;50353;51.420;5.682;2023-01-28T00:44:04;102599.44;;;3.52;77.40
64095;BME280;50353;51.420;5.682;2023-01-28T00:46:29;102602.09;;;3.38;79.39
64095;BME280;50353;51.420;5.682;2023-01-28T00:48:55;102607.28;;;3.45;79.62
64095;BME280;50353;51.420;5.682;2023-01-28T00:51:20;102609.03;;;3.47;80.25
64095;BME280;50353;51.420;5.682;2023-01-28T00:53:46;102616.91;;;3.15;81.42
64095;BME280;50353;51.420;5.682;2023-01-28T00:56:13;102606.44;;;3.27;79.48
64095;BME280;50353;51.420;5.682;2023-01-28T00:58:39;102614.28;;;3.35;79.84
64095;BME280;50353;51.420;5.682;2023-01-28T01:01:09;102615.16;;;3.34;80.46
64095;BME280;50353;51.420;5.682;2023-01-28T01:03:36;102628.22;;;3.34;79.46
64095;BME280;50353;51.420;5.682;2023-01-28T01:06:01;102628.22;;;3.34;79.33
64095;BME280;50353;51.420;5.682;2023-01-28T01:08:26;102625.63;;;3.35;79.50
64095;BME280;50353;51.420;5.682;2023-01-28T01:11:02;102633.47;;;3.37;78.99
64095;BME280;50353;51.420;5.682;2023-01-28T01:13:28;102635.16;;;3.50;79.01
64095;BME280;50353;51.420;5.682;2023-01-28T01:16:02;102628.22;;;3.42;79.45
64095;BME280;50353;51.420;5.682;2023-01-28T01:18:28;102631.72;;;3.45;79.58
64095;BME280;50353;51.420;5.682;2023-01-28T01:20:53;102628.19;;;3.63;78.54
64095;BME280;50353;51.420;5.682;2023-01-28T01:23:29;102623.84;;;3.53;77.75
64095;BME280;50353;51.420;5.682;2023-01-28T01:25:55;102629.03;;;3.62;78.20
64095;BME280;50353;51.420;5.682;2023-01-28T01:28:21;102630.81;;;3.45;78.96
64095;BME280;50353;51.420;5.682;2023-01-28T01:30:47;102622.97;;;3.34;79.08
64095;BME280;50353;51.420;5.682;2023-01-28T01:33:13;102628.13;;;3.77;78.35
64095;BME280;50353;51.420;5.682;2023-01-28T01:35:38;102615.97;;;3.61;77.38
64095;BME280;50353;51.420;5.682;2023-01-28T01:38:04;102626.50;;;3.24;77.83
64095;BME280;50353;51.420;5.682;2023-01-28T01:40:29;102622.13;;;3.30;78.20
64095;BME280;50353;51.420;5.682;2023-01-28T01:42:54;102621.25;;;3.37;78.18
64095;BME280;50353;51.420;5.682;2023-01-28T01:45:20;102623.00;;;3.26;78.74
64095;BME280;50353;51.420;5.682;2023-01-28T01:50:37;102635.19;;;3.12;78.51
64095;BME280;50353;51.420;5.682;2023-01-28T01:53:15;102634.34;;;3.34;78.22
64095;BME280;50353;51.420;5.682;2023-01-28T01:55:45;102632.59;;;3.32;78.23
64095;BME280;50353;51.420;5.682;2023-01-28T01:58:14;102632.56;;;3.52;77.18
64095;BME280;50353;51.420;5.682;2023-01-28T02:00:41;102636.94;;;3.44;77.31
64095;BME280;50353;51.420;5.682;2023-01-28T02:03:08;102634.31;;;3.41;78.08
64095;BME280;50353;51.420;5.682;2023-01-28T02:05:33;102639.53;;;3.41;77.01
64095;BME280;50353;51.420;5.682;2023-01-28T02:07:59;102643.03;;;3.36;77.77
64095;BME280;50353;51.420;5.682;2023-01-28T02:10:50;102633.41;;;3.55;77.98
64095;BME280;50353;51.420;5.682;2023-01-28T02:13:18;102642.13;;;3.68;75.95
64095;BME280;50353;51.420;5.682;2023-01-28T02:15:45;102633.44;;;3.46;75.59
64095;BME280;50353;51.420;5.682;2023-01-28T02:18:10;102629.97;;;3.36;77.07
64095;BME280;50353;51.420;5.682;2023-01-28T02:23:21;102639.56;;;3.07;79.19
64095;BME280;50353;51.420;5.682;2023-01-28T02:26:21;102635.19;;;2.99;76.51
64095;BME280;50353;51.420;5.682;2023-01-28T02:31:22;102634.34;;;3.00;76.28
64095;BME280;50353;51.420;5.682;2023-01-28T02:34:03;102645.63;;;2.87;75.89
64095;BME280;50353;51.420;5.682;2023-01-28T02:36:42;102638.66;;;3.34;75.15
64095;BME280;50353;51.420;5.682;2023-01-28T02:39:15;102643.91;;;3.31;75.33
64095;BME280;50353;51.420;5.682;2023-01-28T02:41:55;102641.31;;;3.04;76.28
64095;BME280;50353;51.420;5.682;2023-01-28T02:44:22;102641.31;;;3.18;76.55
64095;BME280;50353;51.420;5.682;2023-01-28T02:46:47;102638.69;;;3.26;76.58
64095;BME280;50353;51.420;5.682;2023-01-28T02:49:45;102646.53;;;3.17;77.38
64095;BME280;50353;51.420;5.682;2023-01-28T02:54:55;102648.28;;;2.96;78.28
64095;BME280;50353;51.420;5.682;2023-01-28T02:57:40;102646.53;;;3.20;78.39
64095;BME280;50353;51.420;5.682;2023-01-28T03:00:21;102634.34;;;3.03;77.58
64095;BME280;50353;51.420;5.682;2023-01-28T03:03:09;102647.38;;;2.83;78.59
64095;BME280;50353;51.420;5.682;2023-01-28T03:05:44;102643.06;;;3.09;77.50
64095;BME280;50353;51.420;5.682;2023-01-28T03:08:30;102643.91;;;3.06;77.87
64095;BME280;50353;51.420;5.682;2023-01-28T03:11:15;102646.53;;;3.04;77.41
64095;BME280;50353;51.420;5.682;2023-01-28T03:14:00;102646.53;;;2.95;78.08
64095;BME280;50353;51.420;5.682;2023-01-28T03:16:45;102645.66;;;3.19;76.58
64095;BME280;50353;51.420;5.682;2023-01-28T03:19:29;102651.78;;;3.25;77.37
64095;BME280;50353;51.420;5.682;2023-01-28T03:22:14;102656.97;;;3.21;77.27
64095;BME280;50353;51.420;5.682;2023-01-28T03:25:00;102656.13;;;3.21;77.99
64095;BME280;50353;51.420;5.682;2023-01-28T03:27:53;102661.31;;;3.27;77.06
64095;BME280;50353;51.420;5.682;2023-01-28T03:30:44;102651.75;;;3.20;76.67
64095;BME280;50353;51.420;5.682;2023-01-28T03:33:31;102663.06;;;3.00;77.13
64095;BME280;50353;51.420;5.682;2023-01-28T03:36:16;102656.09;;;3.33;76.00
64095;BME280;50353;51.420;5.682;2023-01-28T03:39:00;102663.09;;;3.24;76.01
64095;BME280;50353;51.420;5.682;2023-01-28T03:41:26;102666.56;;;3.12;75.91
64095;BME280;50353;51.420;5.682;2023-01-28T03:43:51;102671.78;;;3.01;74.94
64095;BME280;50353;51.420;5.682;2023-01-28T03:46:18;102673.53;;;3.02;74.68
64095;BME280;50353;51.420;5.682;2023-01-28T03:48:44;102668.28;;;3.03;72.62
64095;BME280;50353;51.420;5.682;2023-01-28T03:51:10;102656.97;;;2.89;73.84
64095;BME280;50353;51.420;5.682;2023-01-28T03:53:36;102665.69;;;3.13;72.87
64095;BME280;50353;51.420;5.682;2023-01-28T03:56:02;102658.72;;;3.19;73.40
64095;BME280;50353;51.420;5.682;2023-01-28T03:58:27;102659.59;;;2.94;73.42
64095;BME280;50353;51.420;5.682;2023-01-28T04:01:11;102657.84;;;3.00;73.58
64095;BME280;50353;51.420;5.682;2023-01-28T04:03:37;102656.13;;;3.18;72.56
64095;BME280;50353;51.420;5.682;2023-01-28T04:06:04;102652.63;;;3.00;72.50
64095;BME280;50353;51.420;5.682;2023-01-28T04:08:30;102660.44;;;2.94;73.08
64095;BME280;50353;51.420;5.682;2023-01-28T04:10:55;102667.41;;;2.95;73.71
64095;BME280;50353;51.420;5.682;2023-01-28T04:13:21;102663.94;;;3.09;73.87
64095;BME280;50353;51.420;5.682;2023-01-28T04:15:46;102673.53;;;2.97;74.49
64095;BME280;50353;51.420;5.682;2023-01-28T04:18:12;102675.28;;;3.15;74.16
64095;BME280;50353;51.420;5.682;2023-01-28T04:20:38;102677.00;;;3.10;75.07
64095;BME280;50353;51.420;5.682;2023-01-28T04:23:04;102679.59;;;2.92;74.80
64095;BME280;50353;51.420;5.682;2023-01-28T04:25:30;102677.84;;;3.00;75.31
64095;BME280;50353;51.420;5.682;2023-01-28T04:27:56;102679.63;;;3.12;76.18
64095;BME280;50353;51.420;5.682;2023-01-28T04:30:21;102687.47;;;3.07;75.06
64095;BME280;50353;51.420;5.682;2023-01-28T04:32:47;102679.63;;;2.99;75.41
64095;BME280;50353;51.420;5.682;2023-01-28T04:35:14;102678.78;;;3.08;74.78
64095;BME280;50353;51.420;5.682;2023-01-28T04:37:40;102679.63;;;2.96;72.58
64095;BME280;50353;51.420;5.682;2023-01-28T04:40:06;102676.13;;;3.02;73.03
64095;BME280;50353;51.420;5.682;2023-01-28T04:42:31;102674.41;;;3.30;71.95
64095;BME280;50353;51.420;5.682;2023-01-28T04:44:57;102674.41;;;3.09;71.99
64095;BME280;50353;51.420;5.682;2023-01-28T04:47:22;102666.53;;;3.38;71.86
64095;BME280;50353;51.420;5.682;2023-01-28T04:49:47;102670.91;;;3.17;72.12
64095;BME280;50353;51.420;5.682;2023-01-28T04:52:13;102672.66;;;3.14;73.11
64095;BME280;50353;51.420;5.682;2023-01-28T04:54:38;102684.84;;;2.96;74.08
64095;BME280;50353;51.420;5.682;2023-01-28T04:57:04;102668.28;;;3.07;73.81
64095;BME280;50353;51.420;5.682;2023-01-28T04:59:29;102674.41;;;3.18;73.20
64095;BME280;50353;51.420;5.682;2023-01-28T05:01:54;102667.44;;;3.08;72.40
64095;BME280;50353;51.420;5.682;2023-01-28T05:04:19;102674.34;;;2.81;72.72
64095;BME280;50353;51.420;5.682;2023-01-28T05:06:45;102668.28;;;2.94;72.89
64095;BME280;50353;51.420;5.682;2023-01-28T05:09:10;102676.13;;;2.91;73.16
64095;BME280;50353;51.420;5.682;2023-01-28T05:11:35;102674.34;;;2.75;73.64
64095;BME280;50353;51.420;5.682;2023-01-28T05:14:01;102672.66;;;2.92;73.19
64095;BME280;50353;51.420;5.682;2023-01-28T05:16:26;102677.84;;;2.87;72.00
64095;BME280;50353;51.420;5.682;2023-01-28T05:18:52;102678.69;;;2.73;70.07
64095;BME280;50353;51.420;5.682;2023-01-28T05:21:17;102683.94;;;2.77;70.08
64095;BME280;50353;51.420;5.682;2023-01-28T05:23:43;102684.78;;;2.78;71.44
64095;BME280;50353;51.420;5.682;2023-01-28T05:26:09;102672.63;;;2.81;70.11
64095;BME280;50353;51.420;5.682;2023-01-28T05:28:35;102675.22;;;2.74;71.14
64095;BME280;50353;51.420;5.682;2023-01-28T05:31:05;102691.78;;;2.76;72.22
64095;BME280;50353;51.420;5.682;2023-01-28T05:33:31;102682.16;;;2.59;71.64
64095;BME280;50353;51.420;5.682;2023-01-28T05:35:56;102684.81;;;2.90;71.03
64095;BME280;50353;51.420;5.682;2023-01-28T05:38:21;102686.56;;;2.86;70.88
64095;BME280;50353;51.420;5.682;2023-01-28T05:40:47;102685.66;;;2.74;71.52
64095;BME280;50353;51.420;5.682;2023-01-28T05:43:12;102686.53;;;2.80;70.55
64095;BME280;50353;51.420;5.682;2023-01-28T05:45:38;102682.22;;;3.04;69.45
64095;BME280;50353;51.420;5.682;2023-01-28T05:48:03;102679.59;;;2.87;69.37
64095;BME280;50353;51.420;5.682;2023-01-28T05:50:29;102681.34;;;2.94;69.38
64095;BME280;50353;51.420;5.682;2023-01-28T05:52:54;102684.78;;;2.78;69.55
64095;BME280;50353;51.420;5.682;2023-01-28T05:55:19;102686.50;;;2.71;68.25
64095;BME280;50353;51.420;5.682;2023-01-28T05:57:45;102696.06;;;2.57;69.54
64095;BME280;50353;51.420;5.682;2023-01-28T06:00:11;102683.00;;;2.55;68.75
64095;BME280;50353;51.420;5.682;2023-01-28T06:02:36;102683.84;;;2.45;70.37
64095;BME280;50353;51.420;5.682;2023-01-28T06:05:02;102695.13;;;2.38;71.09
64095;BME280;50353;51.420;5.682;2023-01-28T06:07:27;102701.25;;;2.53;70.65
64095;BME280;50353;51.420;5.682;2023-01-28T06:09:52;102702.97;;;2.38;71.57
64095;BME280;50353;51.420;5.682;2023-01-28T06:12:18;102694.28;;;2.48;69.87
64095;BME280;50353;51.420;5.682;2023-01-28T06:14:43;102692.47;;;2.33;70.13
64095;BME280;50353;51.420;5.682;2023-01-28T06:17:08;102695.97;;;2.36;70.80
64095;BME280;50353;51.420;5.682;2023-01-28T06:19:33;102699.50;;;2.49;70.03
64095;BME280;50353;51.420;5.682;2023-01-28T06:21:59;102698.53;;;2.24;70.58
64095;BME280;50353;51.420;5.682;2023-01-28T06:24:24;102704.75;;;2.56;70.21
64095;BME280;50353;51.420;5.682;2023-01-28T06:26:50;102697.78;;;2.50;69.53
64095;BME280;50353;51.420;5.682;2023-01-28T06:29:15;102700.44;;;2.62;69.36
64095;BME280;50353;51.420;5.682;2023-01-28T06:31:40;102706.56;;;2.84;68.62
64095;BME280;50353;51.420;5.682;2023-01-28T06:34:06;102709.16;;;2.66;70.58
64095;BME280;50353;51.420;5.682;2023-01-28T06:36:31;102710.88;;;2.68;70.50
64095;BME280;50353;51.420;5.682;2023-01-28T06:38:57;102712.59;;;2.57;71.47
64095;BME280;50353;51.420;5.682;2023-01-28T06:41:22;102713.34;;;2.30;72.12
64095;BME280;50353;51.420;5.682;2023-01-28T06:43:48;102714.34;;;2.55;71.08
64095;BME280;50353;51.420;5.682;2023-01-28T06:46:13;102715.19;;;2.57;70.75
64095;BME280;50353;51.420;5.682;2023-01-28T06:48:38;102709.19;;;2.80;70.03
64095;BME280;50353;51.420;5.682;2023-01-28T06:51:04;102709.16;;;2.75;70.55
64095;BME280;50353;51.420;5.682;2023-01-28T06:53:29;102709.13;;;2.60;70.30
64095;BME280;50353;51.420;5.682;2023-01-28T06:55:55;102713.56;;;2.84;70.55
64095;BME280;50353;51.420;5.682;2023-01-28T06:58:20;102723.03;;;2.54;72.01
64095;BME280;50353;51.420;5.682;2023-01-28T07:00:45;102719.59;;;2.67;71.02
64095;BME280;50353;51.420;5.682;2023-01-28T07:03:10;102721.31;;;2.62;71.50
64095;BME280;50353;51.420;5.682;2023-01-28T07:05:36;102724.78;;;2.58;71.78
64095;BME280;50353;51.420;5.682;2023-01-28T07:08:01;102720.50;;;2.80;70.25
64095;BME280;50353;51.420;5.682;2023-01-28T07:10:27;102723.03;;;2.51;69.60
64095;BME280;50353;51.420;5.682;2023-01-28T07:12:53;102712.63;;;2.73;70.01
64095;BME280;50353;51.420;5.682;2023-01-28T07:15:18;102716.91;;;2.53;71.42
64095;BME280;50353;51.420;5.682;2023-01-28T07:17:43;102723.88;;;2.50;70.96
64095;BME280;50353;51.420;5.682;2023-01-28T07:20:11;102720.41;;;2.56;71.92
64095;BME280;50353;51.420;5.682;2023-01-28T07:22:38;102720.44;;;2.62;71.13
64095;BME280;50353;51.420;5.682;2023-01-28T07:25:05;102715.25;;;2.68;71.71
64095;BME280;50353;51.420;5.682;2023-01-28T07:27:31;102716.16;;;2.84;71.40
64095;BME280;50353;51.420;5.682;2023-01-28T07:29:56;102728.25;;;2.57;71.34
64095;BME280;50353;51.420;5.682;2023-01-28T07:32:21;102727.41;;;2.63;72.06
64095;BME280;50353;51.420;5.682;2023-01-28T07:34:47;102727.34;;;2.43;71.94
64095;BME280;50353;51.420;5.682;2023-01-28T07:37:13;102731.72;;;2.54;72.30
64095;BME280;50353;51.420;5.682;2023-01-28T07:39:39;102735.09;;;2.30;74.17
64095;BME280;50353;51.420;5.682;2023-01-28T07:42:04;102744.66;;;2.30;73.08
64095;BME280;50353;51.420;5.682;2023-01-28T07:44:30;102744.78;;;2.54;72.59
64095;BME280;50353;51.420;5.682;2023-01-28T07:46:56;102744.81;;;2.64;70.59
64095;BME280;50353;51.420;5.682;2023-01-28T07:49:21;102747.38;;;2.56;71.39
64095;BME280;50353;51.420;5.682;2023-01-28T07:51:47;102750.00;;;2.56;69.86
64095;BME280;50353;51.420;5.682;2023-01-28T07:54:14;102750.84;;;2.46;70.34
64095;BME280;50353;51.420;5.682;2023-01-28T07:56:40;102748.22;;;2.49;71.16
64095;BME280;50353;51.420;5.682;2023-01-28T07:59:06;102753.34;;;2.30;69.76
64095;BME280;50353;51.420;5.682;2023-01-28T08:01:31;102754.31;;;2.49;69.19
64095;BME280;50353;51.420;5.682;2023-01-28T08:03:56;102755.25;;;2.59;69.41
64095;BME280;50353;51.420;5.682;2023-01-28T08:06:21;102756.13;;;2.58;69.65
64095;BME280;50353;51.420;5.682;2023-01-28T08:08:47;102759.59;;;2.57;71.04
64095;BME280;50353;51.420;5.682;2023-01-28T08:11:12;102771.72;;;2.46;71.62
64095;BME280;50353;51.420;5.682;2023-01-28T08:13:38;102777.78;;;2.45;71.42
64095;BME280;50353;51.420;5.682;2023-01-28T08:16:04;102777.81;;;2.48;71.54
64095;BME280;50353;51.420;5.682;2023-01-28T08:18:30;102772.53;;;2.35;72.24
64095;BME280;50353;51.420;5.682;2023-01-28T08:20:56;102783.00;;;2.40;72.92
64095;BME280;50353;51.420;5.682;2023-01-28T08:23:22;102784.78;;;2.52;73.34
64095;BME280;50353;51.420;5.682;2023-01-28T08:25:48;102765.53;;;2.33;71.84
64095;BME280;50353;51.420;5.682;2023-01-28T08:28:14;102781.38;;;2.64;70.87
64095;BME280;50353;51.420;5.682;2023-01-28T08:30:40;102790.78;;;2.29;70.49
64095;BME280;50353;51.420;5.682;2023-01-28T08:33:08;102788.22;;;2.42;70.13
64095;BME280;50353;51.420;5.682;2023-01-28T08:35:34;102797.09;;;2.73;69.46
64095;BME280;50353;51.420;5.682;2023-01-28T08:38:01;102806.63;;;2.65;70.65
64095;BME280;50353;51.420;5.682;2023-01-28T08:40:28;102808.34;;;2.64;71.55
64095;BME280;50353;51.420;5.682;2023-01-28T08:42:53;102802.34;;;2.87;70.30
64095;BME280;50353;51.420;5.682;2023-01-28T08:45:20;102812.66;;;2.58;70.79
64095;BME280;50353;51.420;5.682;2023-01-28T08:47:57;102822.16;;;2.45;71.61
64095;BME280;50353;51.420;5.682;2023-01-28T08:50:25;102823.78;;;2.26;71.09
64095;BME280;50353;51.420;5.682;2023-01-28T08:52:53;102826.41;;;2.26;72.52
64095;BME280;50353;51.420;5.682;2023-01-28T08:55:19;102831.53;;;2.10;71.08
64095;BME280;50353;51.420;5.682;2023-01-28T08:57:44;102830.84;;;2.41;70.65
64095;BME280;50353;51.420;5.682;2023-01-28T09:00:10;102822.28;;;2.65;70.27
64095;BME280;50353;51.420;5.682;2023-01-28T09:02:36;102829.16;;;2.50;71.05
64095;BME280;50353;51.420;5.682;2023-01-28T09:05:03;102830.06;;;2.54;70.33
64095;BME280;50353;51.420;5.682;2023-01-28T09:07:29;102829.31;;;2.80;70.69
64095;BME280;50353;51.420;5.682;2023-01-28T09:09:55;102827.31;;;2.35;71.43
64095;BME280;50353;51.420;5.682;2023-01-28T09:12:20;102832.75;;;2.69;70.50
64095;BME280;50353;51.420;5.682;2023-01-28T09:14:45;102837.03;;;2.57;70.77
64095;BME280;50353;51.420;5.682;2023-01-28T09:17:11;102838.75;;;2.51;70.76
64095;BME280;50353;51.420;5.682;2023-01-28T09:19:36;102834.50;;;2.70;69.30
64095;BME280;50353;51.420;5.682;2023-01-28T09:22:04;102837.06;;;2.63;69.39
64095;BME280;50353;51.420;5.682;2023-01-28T09:24:30;102835.34;;;2.68;69.10
64095;BME280;50353;51.420;5.682;2023-01-28T09:26:55;102837.97;;;2.65;69.64
64095;BME280;50353;51.420;5.682;2023-01-28T09:29:21;102854.59;;;2.88;69.98
64095;BME280;50353;51.420;5.682;2023-01-28T09:31:46;102853.78;;;3.00;68.71
64095;BME280;50353;51.420;5.682;2023-01-28T09:34:12;102853.69;;;2.85;69.97
64095;BME280;50353;51.420;5.682;2023-01-28T09:36:38;102845.91;;;2.90;71.11
64095;BME280;50353;51.420;5.682;2023-01-28T09:39:04;102850.22;;;2.81;70.69
64095;BME280;50353;51.420;5.682;2023-01-28T09:41:51;102844.94;;;2.67;71.37
64095;BME280;50353;51.420;5.682;2023-01-28T09:46:52;102853.63;;;2.65;70.65
64095;BME280;50353;51.420;5.682;2023-01-28T09:49:31;102844.13;;;2.82;69.32
64095;BME280;50353;51.420;5.682;2023-01-28T09:51:58;102849.09;;;2.36;71.45
64095;BME280;50353;51.420;5.682;2023-01-28T09:54:44;102862.31;;;2.65;70.04
64095;BME280;50353;51.420;5.682;2023-01-28T09:57:16;102857.09;;;2.68;71.95
64095;BME280;50353;51.420;5.682;2023-01-28T09:59:42;102850.16;;;2.70;71.10
64095;BME280;50353;51.420;5.682;2023-01-28T10:10:13;102858.91;;;2.83;70.75
64095;BME280;50353;51.420;5.682;2023-01-28T10:18:06;102869.22;;;2.59;70.66
64095;BME280;50353;51.420;5.682;2023-01-28T10:20:59;102870.13;;;2.64;71.51
64095;BME280;50353;51.420;5.682;2023-01-28T10:23:48;102870.84;;;2.35;72.83
64095;BME280;50353;51.420;5.682;2023-01-28T10:26:21;102869.31;;;2.73;72.24
64095;BME280;50353;51.420;5.682;2023-01-28T10:28:52;102891.88;;;2.58;72.33
64095;BME280;50353;51.420;5.682;2023-01-28T10:31:19;102877.91;;;2.56;72.25
64095;BME280;50353;51.420;5.682;2023-01-28T10:33:45;102882.97;;;2.31;71.41
64095;BME280;50353;51.420;5.682;2023-01-28T10:36:11;102881.44;;;2.61;71.68
64095;BME280;50353;51.420;5.682;2023-01-28T10:38:36;102877.19;;;2.76;70.74
64095;BME280;50353;51.420;5.682;2023-01-28T10:41:03;102873.84;;;3.03;70.22
64095;BME280;50353;51.420;5.682;2023-01-28T10:43:31;102881.41;;;2.57;70.62
64095;BME280;50353;51.420;5.682;2023-01-28T10:46:32;102862.47;;;2.99;70.20
64095;BME280;50353;51.420;5.682;2023-01-28T10:49:24;102865.09;;;3.01;68.77
64095;BME280;50353;51.420;5.682;2023-01-28T10:51:51;102859.91;;;3.09;69.86
64095;BME280;50353;51.420;5.682;2023-01-28T10:54:23;102882.41;;;2.76;69.50
64095;BME280;50353;51.420;5.682;2023-01-28T10:56:55;102874.44;;;2.54;70.02
64095;BME280;50353;51.420;5.682;2023-01-28T10:59:29;102878.09;;;2.87;71.88
64095;BME280;50353;51.420;5.682;2023-01-28T11:02:03;102859.78;;;2.81;69.32
64095;BME280;50353;51.420;5.682;2023-01-28T11:04:31;102869.41;;;2.90;69.53
64095;BME280;50353;51.420;5.682;2023-01-28T11:07:05;102864.19;;;2.94;68.95
64095;BME280;50353;51.420;5.682;2023-01-28T11:09:45;102851.84;;;2.61;69.36
64095;BME280;50353;51.420;5.682;2023-01-28T11:12:27;102855.44;;;2.81;69.68
64095;BME280;50353;51.420;5.682;2023-01-28T11:17:21;102881.56;;;2.78;69.02
64095;BME280;50353;51.420;5.682;2023-01-28T11:19:49;102874.50;;;2.68;69.91
64095;BME280;50353;51.420;5.682;2023-01-28T11:24:48;102871.16;;;2.89;70.80
64095;BME280;50353;51.420;5.682;2023-01-28T11:27:15;102876.22;;;2.58;71.86
64095;BME280;50353;51.420;5.682;2023-01-28T11:29:42;102878.06;;;2.79;70.62
64095;BME280;50353;51.420;5.682;2023-01-28T11:32:18;102862.31;;;2.68;70.44
64095;BME280;50353;51.420;5.682;2023-01-28T11:34:49;102853.63;;;2.73;70.71
64095;BME280;50353;51.420;5.682;2023-01-28T11:37:15;102856.03;;;2.39;70.80
64095;BME280;50353;51.420;5.682;2023-01-28T11:39:41;102843.19;;;2.69;70.80
64095;BME280;50353;51.420;5.682;2023-01-28T11:42:19;102847.50;;;2.64;70.86
64095;BME280;50353;51.420;5.682;2023-01-28T11:44:45;102841.50;;;2.81;70.53
64095;BME280;50353;51.420;5.682;2023-01-28T11:52:52;102814.59;;;2.97;69.14
64095;BME280;50353;51.420;5.682;2023-01-28T11:55:30;102823.19;;;2.70;70.63
64095;BME280;50353;51.420;5.682;2023-01-28T11:58:11;102817.03;;;2.59;69.86
64095;BME280;50353;51.420;5.682;2023-01-28T12:03:31;102811.84;;;2.69;70.89
64095;BME280;50353;51.420;5.682;2023-01-28T12:14:55;102777.19;;;3.14;69.83
64095;BME280;50353;51.420;5.682;2023-01-28T12:20:02;102759.75;;;3.19;68.81
64095;BME280;50353;51.420;5.682;2023-01-28T12:23:24;102741.50;;;3.33;67.17
64095;BME280;50353;51.420;5.682;2023-01-28T12:25:37;102737.16;;;3.55;66.63
64095;BME280;50353;51.420;5.682;2023-01-28T12:28:14;102735.41;;;3.49;66.78
64095;BME280;50353;51.420;5.682;2023-01-28T12:34:14;102737.16;;;3.66;65.25
64095;BME280;50353;51.420;5.682;2023-01-28T12:44:48;102758.03;;;3.19;67.13
64095;BME280;50353;51.420;5.682;2023-01-28T12:47:19;102757.97;;;2.93;67.54
64095;BME280;50353;51.420;5.682;2023-01-28T12:49:49;102765.00;;;3.22;67.09
64095;BME280;50353;51.420;5.682;2023-01-28T12:52:24;102778.03;;;3.07;67.21
64095;BME280;50353;51.420;5.682;2023-01-28T12:55:10;102772.00;;;3.66;64.98
64095;BME280;50353;51.420;5.682;2023-01-28T12:57:39;102762.41;;;3.70;67.63
64095;BME280;50353;51.420;5.682;2023-01-28T13:00:37;102779.75;;;2.95;67.35
64095;BME280;50353;51.420;5.682;2023-01-28T13:05:38;102780.56;;;2.85;67.12
64095;BME280;50353;51.420;5.682;2023-01-28T13:08:16;102783.28;;;3.19;67.81
64095;BME280;50353;51.420;5.682;2023-01-28T13:10:45;102789.41;;;3.35;68.37
64095;BME280;50353;51.420;5.682;2023-01-28T13:13:21;102782.41;;;3.15;69.35
64095;BME280;50353;51.420;5.682;2023-01-28T13:15:49;102784.19;;;3.33;68.13
64095;BME280;50353;51.420;5.682;2023-01-28T13:18:33;102767.59;;;3.08;67.86
64095;BME280;50353;51.420;5.682;2023-01-28T13:21:00;102785.00;;;3.11;67.34
64095;BME280;50353;51.420;5.682;2023-01-28T13:26:23;102775.47;;;3.25;67.38
64095;BME280;50353;51.420;5.682;2023-01-28T13:28:52;102780.69;;;3.22;68.66
64095;BME280;50353;51.420;5.682;2023-01-28T13:31:20;102760.63;;;3.09;68.12
64095;BME280;50353;51.420;5.682;2023-01-28T13:36:24;102782.34;;;2.92;67.74
64095;BME280;50353;51.420;5.682;2023-01-28T13:39:01;102782.31;;;2.80;68.46
64095;BME280;50353;51.420;5.682;2023-01-28T13:41:42;102771.00;;;2.90;68.08
64095;BME280;50353;51.420;5.682;2023-01-28T13:44:35;102775.47;;;3.22;65.73
64095;BME280;50353;51.420;5.682;2023-01-28T13:49:35;102773.75;;;3.52;65.88
64095;BME280;50353;51.420;5.682;2023-01-28T13:54:51;102753.66;;;4.17;63.97
64095;BME280;50353;51.420;5.682;2023-01-28T14:09:01;102740.56;;;3.11;66.67
64095;BME280;50353;51.420;5.682;2023-01-28T14:12:02;102725.81;;;3.31;67.12
64095;BME280;50353;51.420;5.682;2023-01-28T14:17:41;102707.41;;;4.07;65.54
64095;BME280;50353;51.420;5.682;2023-01-28T14:20:39;102702.28;;;3.62;64.71
64095;BME280;50353;51.420;5.682;2023-01-28T14:23:16;102708.38;;;3.53;65.52
64095;BME280;50353;51.420;5.682;2023-01-28T14:31:29;102715.34;;;3.65;63.82
64095;BME280;50353;51.420;5.682;2023-01-28T14:34:04;102726.66;;;3.81;64.68
64095;BME280;50353;51.420;5.682;2023-01-28T14:36:30;102727.53;;;3.69;64.42
64095;BME280;50353;51.420;5.682;2023-01-28T14:38:56;102731.91;;;3.50;64.61
64095;BME280;50353;51.420;5.682;2023-01-28T14:41:25;102740.59;;;3.04;65.88
64095;BME280;50353;51.420;5.682;2023-01-28T14:43:55;102735.34;;;3.11;66.96
64095;BME280;50353;51.420;5.682;2023-01-28T14:46:37;102735.41;;;3.42;66.05
64095;BME280;50353;51.420;5.682;2023-01-28T14:52:15;102733.66;;;3.24;66.44